createdAt,value
2018-09-09T00:01:04.566Z,16.30
2018-09-09T00:03:38.650Z,16.40
2018-09-09T00:06:12.797Z,16.60
2018-09-09T00:08:46.709Z,16.70
2018-09-09T00:11:20.581Z,16.70
2018-09-09T00:13:54.626Z,16.70
2018-09-09T00:16:29.370Z,16.50
2018-09-09T00:19:03.349Z,16.50
2018-09-09T00:21:37.482Z,16.40
2018-09-09T00:24:12.294Z,16.50
2018-09-09T00:26:46.437Z,16.50
2018-09-09T00:29:20.467Z,16.60
2018-09-09T00:31:54.554Z,16.60
2018-09-09T00:34:28.674Z,16.60
2018-09-09T00:37:02.764Z,16.60
2018-09-09T00:39:36.870Z,16.60
2018-09-09T00:42:10.985Z,16.60
2018-09-09T00:44:45.125Z,16.60
2018-09-09T00:47:19.222Z,16.60
2018-09-09T00:49:53.333Z,16.50
2018-09-09T00:52:27.378Z,16.50
2018-09-09T00:55:02.166Z,16.50
2018-09-09T00:57:36.302Z,16.50
2018-09-09T01:00:10.427Z,16.50
2018-09-09T01:02:44.323Z,16.40
2018-09-09T01:05:18.419Z,16.40
2018-09-09T01:07:52.542Z,16.40
2018-09-09T01:10:26.645Z,16.30
2018-09-09T01:13:01.481Z,16.30
2018-09-09T01:15:35.601Z,16.30
2018-09-09T01:18:09.706Z,16.30
2018-09-09T01:20:43.841Z,16.20
2018-09-09T01:23:17.869Z,15.90
2018-09-09T01:25:51.928Z,15.70
2018-09-09T01:28:25.986Z,15.50
2018-09-09T01:31:00.680Z,15.70
2018-09-09T01:33:35.525Z,15.80
2018-09-09T01:36:09.621Z,15.80
2018-09-09T01:38:43.774Z,15.80
2018-09-09T01:41:17.856Z,15.70
2018-09-09T01:43:51.995Z,15.80
2018-09-09T01:46:26.685Z,15.70
2018-09-09T01:49:01.437Z,15.60
2018-09-09T01:51:35.521Z,15.60
2018-09-09T01:54:09.561Z,15.70
2018-09-09T01:56:43.645Z,15.60
2018-09-09T01:59:17.694Z,15.50
2018-09-09T02:01:51.773Z,15.50
2018-09-09T02:04:25.847Z,15.40
2018-09-09T02:06:59.901Z,15.40
2018-09-09T02:09:33.920Z,15.40
2018-09-09T02:12:08.050Z,15.30
2018-09-09T02:14:42.157Z,15.30
2018-09-09T02:17:16.317Z,15.30
2018-09-09T02:19:50.338Z,14.90
2018-09-09T02:22:24.389Z,15.00
2018-09-09T02:24:58.420Z,15.10
2018-09-09T02:27:32.890Z,15.20
2018-09-09T02:30:06.974Z,15.20
2018-09-09T02:32:41.072Z,15.20
2018-09-09T02:35:16.016Z,15.20
2018-09-09T02:37:50.854Z,15.20
2018-09-09T02:40:24.926Z,15.20
2018-09-09T02:42:59.177Z,15.10
2018-09-09T02:45:33.217Z,15.10
2018-09-09T02:48:07.146Z,15.10
2018-09-09T02:50:41.199Z,15.10
2018-09-09T02:53:25.092Z,15.10
2018-09-09T02:55:58.980Z,15.10
2018-09-09T02:58:32.869Z,14.90
2018-09-09T03:01:06.899Z,14.90
2018-09-09T03:03:40.945Z,14.90
2018-09-09T03:06:14.991Z,14.90
2018-09-09T03:08:49.030Z,14.90
2018-09-09T03:11:23.046Z,14.80
2018-09-09T03:13:57.029Z,14.90
2018-09-09T03:16:31.065Z,14.90
2018-09-09T03:19:05.807Z,14.70
2018-09-09T03:21:39.906Z,14.70
2018-09-09T03:24:13.993Z,14.60
2018-09-09T03:26:48.752Z,14.60
2018-09-09T03:29:23.537Z,14.60
2018-09-09T03:31:58.307Z,14.60
2018-09-09T03:34:32.402Z,14.50
2018-09-09T03:37:06.447Z,14.60
2018-09-09T03:39:41.282Z,14.40
2018-09-09T03:42:15.174Z,14.40
2018-09-09T03:44:49.198Z,14.10
2018-09-09T03:47:23.288Z,14.10
2018-09-09T03:49:58.030Z,14.20
2018-09-09T03:52:32.769Z,14.20
2018-09-09T03:55:07.520Z,14.30
2018-09-09T03:57:41.373Z,14.30
2018-09-09T04:00:15.405Z,14.30
2018-09-09T04:02:49.416Z,14.30
2018-09-09T04:05:23.463Z,14.20
2018-09-09T04:07:57.521Z,14.20
2018-09-09T04:10:31.529Z,13.90
2018-09-09T04:13:05.577Z,13.90
2018-09-09T04:15:39.662Z,13.80
2018-09-09T04:18:13.777Z,13.80
2018-09-09T04:20:47.867Z,13.80
2018-09-09T04:23:21.928Z,13.90
2018-09-09T04:25:55.905Z,13.90
2018-09-09T04:28:29.925Z,13.90
2018-09-09T04:31:03.881Z,13.90
2018-09-09T04:33:37.925Z,13.90
2018-09-09T04:36:11.824Z,14.00
2018-09-09T04:38:45.805Z,14.00
2018-09-09T04:41:19.761Z,14.00
2018-09-09T04:43:54.521Z,13.90
2018-09-09T04:46:28.434Z,13.90
2018-09-09T04:49:02.449Z,14.00
2018-09-09T04:51:36.528Z,13.80
2018-09-09T04:54:10.558Z,13.80
2018-09-09T04:56:45.417Z,13.80
2018-09-09T04:59:19.371Z,13.80
2018-09-09T05:01:53.413Z,13.80
2018-09-09T05:04:27.395Z,13.80
2018-09-09T05:07:01.408Z,13.80
2018-09-09T05:09:35.453Z,13.80
2018-09-09T05:12:09.493Z,13.80
2018-09-09T05:14:43.461Z,13.80
2018-09-09T05:17:17.497Z,13.50
2018-09-09T05:19:51.509Z,13.50
2018-09-09T05:22:25.498Z,13.60
2018-09-09T05:25:00.336Z,13.80
2018-09-09T05:27:34.233Z,13.80
2018-09-09T05:30:08.254Z,13.90
2018-09-09T05:32:42.877Z,14.00
2018-09-09T05:35:16.852Z,14.00
2018-09-09T05:37:50.893Z,14.20
2018-09-09T05:40:24.829Z,14.30
2018-09-09T05:42:58.926Z,14.40
2018-09-09T05:45:32.916Z,14.50
2018-09-09T05:48:06.964Z,14.60
2018-09-09T05:50:40.892Z,14.70
2018-09-09T05:53:14.840Z,14.70
2018-09-09T05:55:48.650Z,14.80
2018-09-09T05:58:22.661Z,14.70
2018-09-09T06:00:56.776Z,14.50
2018-09-09T06:03:30.793Z,14.40
2018-09-09T06:06:04.804Z,14.50
2018-09-09T06:08:39.541Z,15.00
2018-09-09T06:11:14.173Z,15.00
2018-09-09T06:13:48.166Z,15.00
2018-09-09T06:16:22.196Z,14.80
2018-09-09T06:18:56.182Z,14.90
2018-09-09T06:21:30.194Z,15.00
2018-09-09T06:24:04.333Z,15.10
2018-09-09T06:26:38.429Z,14.90
2018-09-09T06:29:12.448Z,14.80
2018-09-09T06:31:46.609Z,15.00
2018-09-09T06:34:20.701Z,15.40
2018-09-09T06:36:54.695Z,15.30
2018-09-09T06:39:28.605Z,15.40
2018-09-09T06:42:02.611Z,15.00
2018-09-09T06:44:36.657Z,15.10
2018-09-09T06:47:10.724Z,15.30
2018-09-09T06:49:44.842Z,15.20
2018-09-09T06:52:18.902Z,15.40
2018-09-09T06:54:52.994Z,15.40
2018-09-09T06:57:27.087Z,15.40
2018-09-09T07:00:01.103Z,15.40
2018-09-09T07:02:35.941Z,15.10
2018-09-09T07:05:10.773Z,15.10
2018-09-09T07:07:44.697Z,15.20
2018-09-09T07:10:18.674Z,15.10
2018-09-09T07:12:52.737Z,15.30
2018-09-09T07:15:26.841Z,15.10
2018-09-09T07:18:00.908Z,14.90
2018-09-09T07:20:37.024Z,15.40
2018-09-09T07:23:12.069Z,15.40
2018-09-09T07:25:46.182Z,15.40
2018-09-09T07:28:20.205Z,15.40
2018-09-09T07:30:55.042Z,15.60
2018-09-09T07:33:29.135Z,15.60
2018-09-09T07:36:03.318Z,15.50
2018-09-09T07:38:38.193Z,15.70
2018-09-09T07:41:12.243Z,15.70
2018-09-09T07:43:46.243Z,15.90
2018-09-09T07:46:20.345Z,15.90
2018-09-09T07:48:54.429Z,15.90
2018-09-09T07:51:28.407Z,16.00
2018-09-09T07:54:02.349Z,16.10
2018-09-09T07:56:37.264Z,16.50
2018-09-09T07:59:11.398Z,16.50
2018-09-09T08:01:45.321Z,16.60
2018-09-09T08:04:19.441Z,16.60
2018-09-09T08:06:54.322Z,17.00
2018-09-09T08:09:28.340Z,17.00
2018-09-09T08:12:02.555Z,17.10
2018-09-09T08:14:36.651Z,17.20
2018-09-09T08:17:10.800Z,17.20
2018-09-09T08:19:44.862Z,17.10
2018-09-09T08:22:19.001Z,17.20
2018-09-09T08:24:53.162Z,17.40
2018-09-09T08:27:27.083Z,17.60
2018-09-09T08:30:01.039Z,17.80
2018-09-09T08:32:35.154Z,17.90
2018-09-09T08:35:09.285Z,17.90
2018-09-09T08:37:43.261Z,18.30
2018-09-09T08:40:17.346Z,18.40
2018-09-09T08:42:51.464Z,18.50
2018-09-09T08:45:25.719Z,18.30
2018-09-09T08:47:59.895Z,18.50
2018-09-09T08:50:33.993Z,18.40
2018-09-09T08:53:09.738Z,18.50
2018-09-09T08:55:43.872Z,18.50
2018-09-09T08:58:17.960Z,18.90
2018-09-09T09:00:52.740Z,19.10
2018-09-09T09:03:26.934Z,19.10
2018-09-09T09:06:01.090Z,19.10
2018-09-09T09:08:35.234Z,19.10
2018-09-09T09:11:09.334Z,19.10
2018-09-09T09:13:43.245Z,19.20
2018-09-09T09:16:17.142Z,19.30
2018-09-09T09:18:51.880Z,19.30
2018-09-09T09:21:26.000Z,19.30
2018-09-09T09:24:00.906Z,19.50
2018-09-09T09:26:35.785Z,19.40
2018-09-09T09:29:09.858Z,19.30
2018-09-09T09:31:44.052Z,19.50
2018-09-09T09:34:18.211Z,19.90
2018-09-09T09:36:52.228Z,20.20
2018-09-09T09:39:26.238Z,20.40
2018-09-09T09:42:00.242Z,20.70
2018-09-09T09:44:34.313Z,20.80
2018-09-09T09:47:08.366Z,20.90
2018-09-09T09:49:42.513Z,21.20
2018-09-09T09:52:16.596Z,21.50
2018-09-09T09:54:50.743Z,21.40
2018-09-09T09:57:25.012Z,21.40
2018-09-09T09:59:59.293Z,21.80
2018-09-09T10:02:34.482Z,22.30
2018-09-09T10:05:08.575Z,22.30
2018-09-09T10:07:43.413Z,22.30
2018-09-09T10:10:18.118Z,22.30
2018-09-09T10:12:52.166Z,22.40
2018-09-09T10:15:26.173Z,22.40
2018-09-09T10:18:00.150Z,22.80
2018-09-09T10:20:34.263Z,23.00
2018-09-09T10:23:08.329Z,23.00
2018-09-09T10:25:42.309Z,23.00
2018-09-09T10:28:16.452Z,23.20
2018-09-09T10:30:50.555Z,23.40
2018-09-09T10:33:24.727Z,23.40
2018-09-09T10:35:58.786Z,23.90
2018-09-09T10:38:33.523Z,24.30
2018-09-09T10:41:08.335Z,24.70
2018-09-09T10:43:42.412Z,24.60
2018-09-09T10:46:16.556Z,24.30
2018-09-09T10:48:50.665Z,24.20
2018-09-09T10:51:24.695Z,23.70
2018-09-09T10:53:58.831Z,23.90
2018-09-09T10:56:32.933Z,24.20
2018-09-09T10:59:06.934Z,24.00
2018-09-09T11:01:41.077Z,24.10
2018-09-09T11:04:15.055Z,24.20
2018-09-09T11:06:49.045Z,23.90
2018-09-09T11:09:23.148Z,23.60
2018-09-09T11:11:57.286Z,23.70
2018-09-09T11:14:32.147Z,24.00
2018-09-09T11:17:06.049Z,24.00
2018-09-09T11:19:40.276Z,24.20
2018-09-09T11:22:14.544Z,23.90
2018-09-09T11:24:48.715Z,23.80
2018-09-09T11:27:23.501Z,23.80
2018-09-09T11:29:57.672Z,23.80
2018-09-09T11:32:31.729Z,23.60
2018-09-09T11:35:05.825Z,23.40
2018-09-09T11:37:39.986Z,23.30
2018-09-09T11:40:13.976Z,23.40
2018-09-09T11:42:48.681Z,23.60
2018-09-09T11:45:22.763Z,23.60
2018-09-09T11:47:56.926Z,23.60
2018-09-09T11:50:30.984Z,23.40
2018-09-09T11:53:05.024Z,23.60
2018-09-09T11:55:39.154Z,24.20
2018-09-09T11:58:13.154Z,24.10
2018-09-09T12:00:47.909Z,23.80
2018-09-09T12:03:22.004Z,23.80
2018-09-09T12:06:02.026Z,24.30
2018-09-09T12:08:36.204Z,24.30
2018-09-09T12:11:10.236Z,24.20
2018-09-09T12:13:45.151Z,23.80
2018-09-09T12:16:19.248Z,23.90
2018-09-09T12:18:53.497Z,24.40
2018-09-09T12:21:27.460Z,24.70
2018-09-09T12:24:01.482Z,24.80
2018-09-09T12:26:35.707Z,24.30
2018-09-09T12:29:09.706Z,24.10
2018-09-09T12:31:43.803Z,24.10
2018-09-09T12:34:17.976Z,24.20
2018-09-09T12:36:51.917Z,24.00
2018-09-09T12:39:26.062Z,24.00
2018-09-09T12:42:00.186Z,23.90
2018-09-09T12:44:34.146Z,24.10
2018-09-09T12:47:08.146Z,23.90
2018-09-09T12:49:42.216Z,23.90
2018-09-09T12:52:16.304Z,23.90
2018-09-09T12:54:50.498Z,23.80
2018-09-09T12:57:25.270Z,23.80
2018-09-09T13:00:00.090Z,23.80
2018-09-09T13:02:34.409Z,23.80
2018-09-09T13:05:08.563Z,24.10
2018-09-09T13:07:42.628Z,24.10
2018-09-09T13:10:16.737Z,23.80
2018-09-09T13:12:51.681Z,24.30
2018-09-09T13:15:25.860Z,24.30
2018-09-09T13:17:59.768Z,24.10
2018-09-09T13:20:33.838Z,24.30
2018-09-09T13:23:07.844Z,24.70
2018-09-09T13:25:41.914Z,24.80
2018-09-09T13:28:15.971Z,25.10
2018-09-09T13:30:49.986Z,25.60
2018-09-09T13:33:24.174Z,25.60
2018-09-09T13:35:59.865Z,25.90
2018-09-09T13:38:33.949Z,25.90
2018-09-09T13:41:08.029Z,26.10
2018-09-09T13:43:42.289Z,26.40
2018-09-09T13:46:16.292Z,26.40
2018-09-09T13:48:50.259Z,25.90
2018-09-09T13:51:24.317Z,26.10
2018-09-09T13:53:58.257Z,26.50
2018-09-09T13:56:32.190Z,26.30
2018-09-09T13:59:06.399Z,26.10
2018-09-09T14:01:40.467Z,26.20
2018-09-09T14:04:14.581Z,26.90
2018-09-09T14:06:48.692Z,26.80
2018-09-09T14:09:22.866Z,26.80
2018-09-09T14:11:57.015Z,26.60
2018-09-09T14:14:31.954Z,26.00
2018-09-09T14:17:09.847Z,26.10
2018-09-09T14:19:43.989Z,26.10
2018-09-09T14:22:18.051Z,25.90
2018-09-09T14:24:52.010Z,25.80
2018-09-09T14:27:25.974Z,25.70
2018-09-09T14:30:00.849Z,25.60
2018-09-09T14:32:34.980Z,25.60
2018-09-09T14:35:09.071Z,25.80
2018-09-09T14:37:43.177Z,25.90
2018-09-09T14:40:17.959Z,26.10
2018-09-09T14:42:52.064Z,26.10
2018-09-09T14:45:26.093Z,26.20
2018-09-09T14:48:00.290Z,25.90
2018-09-09T14:50:34.461Z,25.90
2018-09-09T14:53:08.594Z,25.90
2018-09-09T14:55:42.551Z,25.90
2018-09-09T14:58:17.289Z,26.00
2018-09-09T15:00:52.053Z,26.10
2018-09-09T15:03:26.156Z,26.10
2018-09-09T15:06:00.264Z,26.30
2018-09-09T15:08:34.999Z,26.60
2018-09-09T15:11:09.110Z,26.60
2018-09-09T15:13:43.225Z,26.60
2018-09-09T15:16:18.163Z,26.70
2018-09-09T15:18:52.272Z,26.70
2018-09-09T15:21:26.389Z,26.40
2018-09-09T15:24:00.401Z,26.60
2018-09-09T15:26:35.104Z,26.50
2018-09-09T15:29:09.137Z,26.50
2018-09-09T15:31:43.269Z,26.40
2018-09-09T15:34:17.989Z,26.00
2018-09-09T15:36:51.951Z,26.00
2018-09-09T15:39:26.004Z,25.90
2018-09-09T15:41:59.972Z,26.10
2018-09-09T15:44:33.978Z,25.90
2018-09-09T15:47:08.809Z,28.30
2018-09-09T15:49:42.889Z,28.20
2018-09-09T15:52:17.114Z,29.70
2018-09-09T15:54:51.129Z,30.00
2018-09-09T15:57:25.248Z,29.90
2018-09-09T15:59:59.389Z,29.90
2018-09-09T16:02:33.510Z,29.70
2018-09-09T16:05:07.456Z,29.50
2018-09-09T16:07:41.504Z,29.20
2018-09-09T16:10:16.327Z,30.30
2018-09-09T16:12:50.424Z,30.30
2018-09-09T16:15:24.473Z,31.00
2018-09-09T16:17:58.469Z,31.60
2018-09-09T16:20:32.476Z,32.20
2018-09-09T16:23:06.497Z,32.50
2018-09-09T16:25:40.611Z,32.80
2018-09-09T16:28:15.369Z,32.10
2018-09-09T16:30:49.315Z,32.10
2018-09-09T16:33:23.330Z,32.30
2018-09-09T16:35:57.348Z,31.80
2018-09-09T16:38:31.408Z,31.80
2018-09-09T16:41:05.355Z,31.00
2018-09-09T16:43:39.410Z,30.30
2018-09-09T16:46:13.516Z,29.00
2018-09-09T16:48:47.529Z,29.00
2018-09-09T16:51:21.458Z,28.80
2018-09-09T16:53:55.555Z,28.00
2018-09-09T16:56:30.397Z,27.30
2018-09-09T16:59:04.289Z,27.30
2018-09-09T17:01:38.300Z,27.50
2018-09-09T17:04:12.242Z,27.40
2018-09-09T17:06:46.165Z,27.20
2018-09-09T17:09:20.149Z,27.20
2018-09-09T17:11:54.140Z,27.00
2018-09-09T17:14:28.982Z,26.90
2018-09-09T17:17:02.993Z,26.90
2018-09-09T17:19:36.993Z,26.70
2018-09-09T17:22:11.820Z,26.10
2018-09-09T17:24:45.940Z,26.10
2018-09-09T17:27:19.995Z,25.90
2018-09-09T17:29:54.049Z,25.80
2018-09-09T17:32:27.966Z,25.60
2018-09-09T17:35:02.203Z,25.50
2018-09-09T17:37:36.177Z,25.30
2018-09-09T17:40:10.852Z,24.90
2018-09-09T17:42:44.945Z,24.90
2018-09-09T17:45:19.043Z,24.80
2018-09-09T17:47:53.169Z,24.70
2018-09-09T17:50:27.168Z,24.40
2018-09-09T17:53:01.226Z,24.30
2018-09-09T17:55:35.909Z,24.10
2018-09-09T17:58:09.864Z,24.10
2018-09-09T18:00:43.909Z,24.00
2018-09-09T18:03:17.918Z,23.80
2018-09-09T18:05:52.671Z,23.60
2018-09-09T18:08:26.606Z,23.60
2018-09-09T18:11:00.609Z,23.60
2018-09-09T18:13:34.610Z,23.30
2018-09-09T18:16:08.617Z,23.20
2018-09-09T18:18:42.613Z,23.20
2018-09-09T18:21:16.670Z,23.10
2018-09-09T18:23:50.725Z,23.00
2018-09-09T18:26:24.811Z,23.00
2018-09-09T18:28:58.885Z,22.90
2018-09-09T18:31:33.010Z,22.80
2018-09-09T18:34:06.925Z,22.80
2018-09-09T18:36:40.930Z,22.60
2018-09-09T18:39:15.802Z,22.40
2018-09-09T18:41:50.859Z,22.40
2018-09-09T18:44:24.855Z,22.40
2018-09-09T18:47:03.334Z,22.30
2018-09-09T18:52:43.358Z,22.20
2018-09-09T18:55:20.346Z,22.20
2018-09-09T18:57:54.380Z,22.20
2018-09-09T19:00:29.507Z,22.10
2018-09-09T19:03:04.296Z,22.00
2018-09-09T19:05:39.115Z,22.00
2018-09-09T19:08:14.573Z,21.90
2018-09-09T19:10:48.666Z,21.90
2018-09-09T19:13:22.686Z,21.80
2018-09-09T19:16:04.064Z,21.50
2018-09-09T19:18:38.047Z,21.50
2018-09-09T19:21:16.159Z,21.50
2018-09-09T19:23:55.076Z,21.50
2018-09-09T19:36:48.671Z,21.40
2018-09-09T19:39:23.583Z,20.90
2018-09-09T19:41:59.200Z,20.90
2018-09-09T19:44:36.402Z,20.80
2018-09-09T19:47:10.581Z,20.80
2018-09-09T19:49:44.650Z,20.80
2018-09-09T19:52:18.931Z,20.70
2018-09-09T19:54:52.981Z,20.70
2018-09-09T19:57:27.183Z,20.50
2018-09-09T20:00:01.190Z,20.50
2018-09-09T20:02:39.055Z,20.50
2018-09-09T20:05:14.173Z,20.40
2018-09-09T20:07:48.408Z,20.40
2018-09-09T20:10:22.537Z,20.50
2018-09-09T20:12:56.645Z,20.30
2018-09-09T20:15:30.805Z,20.30
2018-09-09T20:18:04.990Z,20.30
2018-09-09T20:20:47.887Z,20.30
2018-09-09T20:23:22.238Z,20.20
2018-09-09T20:25:56.379Z,20.10
2018-09-09T20:28:30.616Z,20.10
2018-09-09T20:31:04.813Z,19.90
2018-09-09T20:33:38.737Z,19.80
2018-09-09T20:36:12.806Z,19.80
2018-09-09T20:38:47.078Z,19.80
2018-09-09T20:41:22.004Z,19.70
2018-09-09T20:43:56.327Z,19.70
2018-09-09T20:46:30.461Z,19.70
2018-09-09T20:49:04.672Z,19.60
2018-09-09T20:51:38.886Z,19.60
2018-09-09T20:54:13.304Z,19.50
2018-09-09T20:56:47.326Z,19.50
2018-09-09T20:59:21.555Z,19.50
2018-09-09T21:01:55.850Z,19.30
2018-09-09T21:04:30.101Z,19.40
2018-09-09T21:07:04.114Z,19.30
2018-09-09T21:09:38.421Z,19.30
2018-09-09T21:12:12.607Z,19.30
2018-09-09T21:14:46.665Z,19.30
2018-09-09T21:17:20.789Z,19.30
2018-09-09T21:19:54.882Z,19.30
2018-09-09T21:22:29.184Z,19.00
2018-09-09T21:25:04.109Z,19.00
2018-09-09T21:27:38.161Z,19.00
2018-09-09T21:30:12.401Z,19.00
2018-09-09T21:32:46.634Z,18.90
2018-09-09T21:35:21.475Z,18.80
2018-09-09T21:37:55.782Z,18.70
2018-09-09T21:40:30.223Z,18.70
2018-09-09T21:43:04.332Z,18.30
2018-09-09T21:45:39.200Z,17.60
2018-09-09T21:48:14.225Z,17.70
2018-09-09T21:50:48.238Z,17.70
2018-09-09T21:53:23.205Z,18.10
2018-09-09T21:55:57.820Z,18.10
2018-09-09T21:58:32.213Z,18.10
2018-09-09T22:01:06.934Z,18.10
2018-09-09T22:03:41.171Z,18.20
2018-09-09T22:06:15.461Z,18.10
2018-09-09T22:08:49.760Z,18.00
2018-09-09T22:11:23.847Z,18.00
2018-09-09T22:13:58.122Z,18.10
2018-09-09T22:16:33.470Z,18.10
2018-09-09T22:19:07.632Z,18.00
2018-09-09T22:21:41.733Z,18.00
2018-09-09T22:24:16.031Z,18.00
2018-09-09T22:26:49.930Z,17.90
2018-09-09T22:29:23.954Z,17.90
2018-09-09T22:31:58.086Z,17.90
2018-09-09T22:34:32.211Z,17.70
2018-09-09T22:37:06.966Z,17.80
2018-09-09T22:39:41.821Z,17.80
2018-09-09T22:42:16.267Z,17.80
2018-09-09T22:44:50.478Z,17.80
2018-09-09T22:47:24.740Z,17.80
2018-09-09T22:49:58.924Z,17.70
2018-09-09T22:52:33.197Z,17.70
2018-09-09T22:55:07.243Z,17.70
2018-09-09T22:57:42.073Z,17.60
2018-09-09T23:00:16.217Z,17.60
2018-09-09T23:02:50.458Z,17.60
2018-09-09T23:05:24.469Z,17.60
2018-09-09T23:07:58.570Z,17.50
2018-09-09T23:10:32.658Z,17.50
2018-09-09T23:13:06.948Z,17.30
2018-09-09T23:15:40.986Z,17.30
2018-09-09T23:18:14.942Z,17.30
2018-09-09T23:20:48.999Z,17.30
2018-09-09T23:23:23.014Z,17.10
2018-09-09T23:25:57.134Z,17.10
2018-09-09T23:28:31.342Z,17.10
2018-09-09T23:31:06.170Z,17.10
2018-09-09T23:33:40.452Z,17.00
2018-09-09T23:36:14.604Z,17.00
2018-09-09T23:38:48.969Z,17.00
2018-09-09T23:41:23.053Z,17.00
2018-09-09T23:43:57.303Z,17.00
2018-09-09T23:46:31.412Z,17.00
2018-09-09T23:49:05.572Z,17.00
2018-09-09T23:51:39.785Z,16.90
2018-09-09T23:54:13.863Z,16.80
2018-09-09T23:56:48.041Z,16.90
2018-09-09T23:59:22.146Z,16.80
